sensor_id;sensor_type;location;lat;lon;timestamp;P1;durP1;ratioP1;P2;durP2;ratioP2
2562;SDS011;1291;51.420;6.970;2023-03-03T00:00:26;93.47;;;44.93;;
2562;SDS011;1291;51.420;6.970;2023-03-03T00:02:51;98.03;;;46.53;;
2562;SDS011;1291;51.420;6.970;2023-03-03T00:05:17;95.83;;;46.37;;
2562;SDS011;1291;51.420;6.970;2023-03-03T00:07:45;99.47;;;46.53;;
2562;SDS011;1291;51.420;6.970;2023-03-03T00:10:12;99.07;;;45.23;;
2562;SDS011;1291;51.420;6.970;2023-03-03T00:12:44;97.17;;;45.13;;
2562;SDS011;1291;51.420;6.970;2023-03-03T00:15:13;101.93;;;46.57;;
2562;SDS011;1291;51.420;6.970;2023-03-03T00:17:42;106.00;;;46.37;;
2562;SDS011;1291;51.420;6.970;2023-03-03T00:22:54;106.00;;;47.97;;
2562;SDS011;1291;51.420;6.970;2023-03-03T00:25:38;112.83;;;48.93;;
2562;SDS011;1291;51.420;6.970;2023-03-03T00:30:58;101.70;;;45.07;;
2562;SDS011;1291;51.420;6.970;2023-03-03T00:33:28;107.90;;;47.93;;
2562;SDS011;1291;51.420;6.970;2023-03-03T00:36:44;96.13;;;45.23;;
2562;SDS011;1291;51.420;6.970;2023-03-03T00:39:10;99.67;;;44.90;;
2562;SDS011;1291;51.420;6.970;2023-03-03T00:41:43;107.47;;;46.63;;
2562;SDS011;1291;51.420;6.970;2023-03-03T00:44:24;106.20;;;47.50;;
2562;SDS011;1291;51.420;6.970;2023-03-03T00:49:51;90.23;;;42.90;;
2562;SDS011;1291;51.420;6.970;2023-03-03T00:52:32;106.10;;;45.77;;
2562;SDS011;1291;51.420;6.970;2023-03-03T00:55:00;98.40;;;44.97;;
2562;SDS011;1291;51.420;6.970;2023-03-03T00:57:26;97.13;;;45.83;;
2562;SDS011;1291;51.420;6.970;2023-03-03T00:59:52;97.33;;;46.37;;
2562;SDS011;1291;51.420;6.970;2023-03-03T01:02:18;103.43;;;49.43;;
2562;SDS011;1291;51.420;6.970;2023-03-03T01:04:44;106.23;;;49.93;;
2562;SDS011;1291;51.420;6.970;2023-03-03T01:07:14;107.57;;;49.70;;
2562;SDS011;1291;51.420;6.970;2023-03-03T01:09:40;95.33;;;48.20;;
2562;SDS011;1291;51.420;6.970;2023-03-03T01:12:06;88.97;;;42.67;;
2562;SDS011;1291;51.420;6.970;2023-03-03T01:14:31;102.80;;;47.53;;
2562;SDS011;1291;51.420;6.970;2023-03-03T01:16:57;94.33;;;44.20;;
2562;SDS011;1291;51.420;6.970;2023-03-03T01:19:22;92.13;;;45.07;;
2562;SDS011;1291;51.420;6.970;2023-03-03T01:21:47;83.77;;;39.87;;
2562;SDS011;1291;51.420;6.970;2023-03-03T01:24:13;87.93;;;43.07;;
2562;SDS011;1291;51.420;6.970;2023-03-03T01:26:38;86.80;;;40.53;;
2562;SDS011;1291;51.420;6.970;2023-03-03T01:29:07;82.87;;;40.97;;
2562;SDS011;1291;51.420;6.970;2023-03-03T01:31:32;82.20;;;40.30;;
2562;SDS011;1291;51.420;6.970;2023-03-03T01:33:58;79.40;;;40.23;;
2562;SDS011;1291;51.420;6.970;2023-03-03T01:36:24;91.90;;;40.53;;
2562;SDS011;1291;51.420;6.970;2023-03-03T01:38:50;83.07;;;40.77;;
2562;SDS011;1291;51.420;6.970;2023-03-03T01:41:16;80.30;;;40.13;;
2562;SDS011;1291;51.420;6.970;2023-03-03T01:43:42;82.10;;;39.87;;
2562;SDS011;1291;51.420;6.970;2023-03-03T01:48:50;91.20;;;41.70;;
2562;SDS011;1291;51.420;6.970;2023-03-03T01:51:22;83.13;;;39.90;;
2562;SDS011;1291;51.420;6.970;2023-03-03T01:54:02;81.50;;;41.07;;
2562;SDS011;1291;51.420;6.970;2023-03-03T01:56:30;83.07;;;39.67;;
2562;SDS011;1291;51.420;6.970;2023-03-03T01:59:56;83.97;;;39.60;;
2562;SDS011;1291;51.420;6.970;2023-03-03T02:01:58;71.67;;;34.53;;
2562;SDS011;1291;51.420;6.970;2023-03-03T02:04:24;63.37;;;32.80;;
2562;SDS011;1291;51.420;6.970;2023-03-03T02:06:55;61.83;;;32.63;;
2562;SDS011;1291;51.420;6.970;2023-03-03T02:12:32;63.23;;;32.77;;
2562;SDS011;1291;51.420;6.970;2023-03-03T02:15:07;71.17;;;33.83;;
2562;SDS011;1291;51.420;6.970;2023-03-03T02:17:43;68.00;;;33.57;;
2562;SDS011;1291;51.420;6.970;2023-03-03T02:25:36;71.87;;;35.70;;
2562;SDS011;1291;51.420;6.970;2023-03-03T02:28:04;76.97;;;36.50;;
2562;SDS011;1291;51.420;6.970;2023-03-03T02:30:29;80.33;;;37.47;;
2562;SDS011;1291;51.420;6.970;2023-03-03T02:32:54;74.60;;;36.60;;
2562;SDS011;1291;51.420;6.970;2023-03-03T02:35:27;70.33;;;34.87;;
2562;SDS011;1291;51.420;6.970;2023-03-03T02:37:58;65.27;;;32.37;;
2562;SDS011;1291;51.420;6.970;2023-03-03T02:40:32;69.50;;;34.17;;
2562;SDS011;1291;51.420;6.970;2023-03-03T02:43:01;57.57;;;30.20;;
2562;SDS011;1291;51.420;6.970;2023-03-03T02:45:30;61.57;;;30.57;;
2562;SDS011;1291;51.420;6.970;2023-03-03T02:47:56;63.87;;;29.33;;
2562;SDS011;1291;51.420;6.970;2023-03-03T02:50:21;61.30;;;31.07;;
2562;SDS011;1291;51.420;6.970;2023-03-03T02:52:47;61.63;;;31.33;;
2562;SDS011;1291;51.420;6.970;2023-03-03T02:55:12;65.20;;;32.47;;
2562;SDS011;1291;51.420;6.970;2023-03-03T02:57:37;71.03;;;33.73;;
2562;SDS011;1291;51.420;6.970;2023-03-03T03:00:03;69.27;;;32.73;;
2562;SDS011;1291;51.420;6.970;2023-03-03T03:02:29;72.93;;;33.27;;
2562;SDS011;1291;51.420;6.970;2023-03-03T03:04:55;77.77;;;34.53;;
2562;SDS011;1291;51.420;6.970;2023-03-03T03:07:20;73.07;;;34.07;;
2562;SDS011;1291;51.420;6.970;2023-03-03T03:09:45;70.30;;;34.23;;
2562;SDS011;1291;51.420;6.970;2023-03-03T03:12:11;71.03;;;32.70;;
2562;SDS011;1291;51.420;6.970;2023-03-03T03:14:37;67.93;;;31.70;;
2562;SDS011;1291;51.420;6.970;2023-03-03T03:17:02;71.70;;;32.80;;
2562;SDS011;1291;51.420;6.970;2023-03-03T03:19:28;75.50;;;34.37;;
2562;SDS011;1291;51.420;6.970;2023-03-03T03:21:54;71.67;;;33.83;;
2562;SDS011;1291;51.420;6.970;2023-03-03T03:24:19;69.67;;;33.60;;
2562;SDS011;1291;51.420;6.970;2023-03-03T03:26:44;67.00;;;33.10;;
2562;SDS011;1291;51.420;6.970;2023-03-03T03:29:10;77.70;;;33.23;;
2562;SDS011;1291;51.420;6.970;2023-03-03T03:31:35;66.60;;;32.50;;
2562;SDS011;1291;51.420;6.970;2023-03-03T03:34:00;63.97;;;32.33;;
2562;SDS011;1291;51.420;6.970;2023-03-03T03:36:26;68.53;;;33.83;;
2562;SDS011;1291;51.420;6.970;2023-03-03T03:38:52;65.53;;;31.57;;
2562;SDS011;1291;51.420;6.970;2023-03-03T03:41:17;57.03;;;30.73;;
2562;SDS011;1291;51.420;6.970;2023-03-03T03:43:43;63.33;;;30.67;;
2562;SDS011;1291;51.420;6.970;2023-03-03T03:46:08;70.73;;;33.00;;
2562;SDS011;1291;51.420;6.970;2023-03-03T03:48:34;68.97;;;32.83;;
2562;SDS011;1291;51.420;6.970;2023-03-03T03:50:59;67.27;;;33.17;;
2562;SDS011;1291;51.420;6.970;2023-03-03T03:53:25;69.33;;;33.20;;
2562;SDS011;1291;51.420;6.970;2023-03-03T03:55:51;68.77;;;33.67;;
2562;SDS011;1291;51.420;6.970;2023-03-03T03:58:17;76.13;;;33.10;;
2562;SDS011;1291;51.420;6.970;2023-03-03T04:00:43;70.87;;;32.90;;
2562;SDS011;1291;51.420;6.970;2023-03-03T04:03:09;72.70;;;33.73;;
2562;SDS011;1291;51.420;6.970;2023-03-03T04:05:35;73.03;;;34.07;;
2562;SDS011;1291;51.420;6.970;2023-03-03T04:08:00;73.87;;;35.50;;
2562;SDS011;1291;51.420;6.970;2023-03-03T04:10:26;71.80;;;35.10;;
2562;SDS011;1291;51.420;6.970;2023-03-03T04:12:51;71.53;;;33.97;;
2562;SDS011;1291;51.420;6.970;2023-03-03T04:15:16;69.40;;;35.20;;
2562;SDS011;1291;51.420;6.970;2023-03-03T04:17:42;68.07;;;33.23;;
2562;SDS011;1291;51.420;6.970;2023-03-03T04:20:07;58.53;;;30.70;;
2562;SDS011;1291;51.420;6.970;2023-03-03T04:22:35;64.60;;;30.57;;
2562;SDS011;1291;51.420;6.970;2023-03-03T04:25:01;59.97;;;30.03;;
2562;SDS011;1291;51.420;6.970;2023-03-03T04:27:30;67.50;;;32.97;;
2562;SDS011;1291;51.420;6.970;2023-03-03T04:30:17;58.30;;;28.27;;
2562;SDS011;1291;51.420;6.970;2023-03-03T04:32:43;62.87;;;30.17;;
2562;SDS011;1291;51.420;6.970;2023-03-03T04:35:08;60.07;;;30.07;;
2562;SDS011;1291;51.420;6.970;2023-03-03T04:37:35;65.87;;;31.73;;
2562;SDS011;1291;51.420;6.970;2023-03-03T04:40:02;60.10;;;30.43;;
2562;SDS011;1291;51.420;6.970;2023-03-03T04:42:29;64.50;;;30.50;;
2562;SDS011;1291;51.420;6.970;2023-03-03T04:44:54;62.33;;;29.20;;
2562;SDS011;1291;51.420;6.970;2023-03-03T04:47:19;56.07;;;28.97;;
2562;SDS011;1291;51.420;6.970;2023-03-03T04:49:45;58.63;;;29.70;;
2562;SDS011;1291;51.420;6.970;2023-03-03T04:52:10;61.27;;;29.63;;
2562;SDS011;1291;51.420;6.970;2023-03-03T04:54:35;56.67;;;29.27;;
2562;SDS011;1291;51.420;6.970;2023-03-03T04:57:01;62.37;;;30.17;;
2562;SDS011;1291;51.420;6.970;2023-03-03T04:59:26;55.37;;;29.27;;
2562;SDS011;1291;51.420;6.970;2023-03-03T05:01:51;55.30;;;28.43;;
2562;SDS011;1291;51.420;6.970;2023-03-03T05:04:16;58.30;;;29.13;;
2562;SDS011;1291;51.420;6.970;2023-03-03T05:06:42;53.77;;;27.63;;
2562;SDS011;1291;51.420;6.970;2023-03-03T05:09:07;62.13;;;30.40;;
2562;SDS011;1291;51.420;6.970;2023-03-03T05:11:33;71.30;;;34.47;;
2562;SDS011;1291;51.420;6.970;2023-03-03T05:13:59;69.67;;;33.67;;
2562;SDS011;1291;51.420;6.970;2023-03-03T05:16:24;65.63;;;32.00;;
2562;SDS011;1291;51.420;6.970;2023-03-03T05:18:50;56.43;;;29.23;;
2562;SDS011;1291;51.420;6.970;2023-03-03T05:21:15;58.17;;;28.13;;
2562;SDS011;1291;51.420;6.970;2023-03-03T05:23:43;60.60;;;28.43;;
2562;SDS011;1291;51.420;6.970;2023-03-03T05:26:11;62.10;;;29.10;;
2562;SDS011;1291;51.420;6.970;2023-03-03T05:28:37;67.97;;;31.00;;
2562;SDS011;1291;51.420;6.970;2023-03-03T05:31:02;62.17;;;29.40;;
2562;SDS011;1291;51.420;6.970;2023-03-03T05:33:27;71.43;;;31.47;;
2562;SDS011;1291;51.420;6.970;2023-03-03T05:35:54;64.13;;;31.50;;
2562;SDS011;1291;51.420;6.970;2023-03-03T05:38:20;65.70;;;29.80;;
2562;SDS011;1291;51.420;6.970;2023-03-03T05:40:49;65.10;;;30.33;;
2562;SDS011;1291;51.420;6.970;2023-03-03T05:43:15;63.67;;;28.33;;
2562;SDS011;1291;51.420;6.970;2023-03-03T05:45:40;59.17;;;28.47;;
2562;SDS011;1291;51.420;6.970;2023-03-03T05:48:05;65.37;;;29.90;;
2562;SDS011;1291;51.420;6.970;2023-03-03T05:50:34;71.70;;;30.97;;
2562;SDS011;1291;51.420;6.970;2023-03-03T05:53:01;61.13;;;28.73;;
2562;SDS011;1291;51.420;6.970;2023-03-03T05:55:27;64.30;;;31.27;;
2562;SDS011;1291;51.420;6.970;2023-03-03T05:57:52;70.17;;;31.87;;
2562;SDS011;1291;51.420;6.970;2023-03-03T06:00:18;70.73;;;30.67;;
2562;SDS011;1291;51.420;6.970;2023-03-03T06:02:46;65.47;;;31.47;;
2562;SDS011;1291;51.420;6.970;2023-03-03T06:05:11;86.07;;;35.87;;
2562;SDS011;1291;51.420;6.970;2023-03-03T06:07:37;80.30;;;34.53;;
2562;SDS011;1291;51.420;6.970;2023-03-03T06:10:03;79.10;;;32.13;;
2562;SDS011;1291;51.420;6.970;2023-03-03T06:12:29;76.77;;;34.93;;
2562;SDS011;1291;51.420;6.970;2023-03-03T06:14:54;78.57;;;32.70;;
2562;SDS011;1291;51.420;6.970;2023-03-03T06:17:20;74.10;;;33.37;;
2562;SDS011;1291;51.420;6.970;2023-03-03T06:19:45;65.83;;;32.47;;
2562;SDS011;1291;51.420;6.970;2023-03-03T06:22:11;68.37;;;30.57;;
2562;SDS011;1291;51.420;6.970;2023-03-03T06:24:37;60.87;;;29.90;;
2562;SDS011;1291;51.420;6.970;2023-03-03T06:27:02;75.17;;;34.47;;
2562;SDS011;1291;51.420;6.970;2023-03-03T06:29:27;72.80;;;33.47;;
2562;SDS011;1291;51.420;6.970;2023-03-03T06:31:53;75.30;;;34.47;;
2562;SDS011;1291;51.420;6.970;2023-03-03T06:34:19;83.80;;;36.43;;
2562;SDS011;1291;51.420;6.970;2023-03-03T06:36:44;83.43;;;37.20;;
2562;SDS011;1291;51.420;6.970;2023-03-03T06:39:10;76.77;;;34.60;;
2562;SDS011;1291;51.420;6.970;2023-03-03T06:41:35;89.77;;;37.07;;
2562;SDS011;1291;51.420;6.970;2023-03-03T06:44:01;88.63;;;37.63;;
2562;SDS011;1291;51.420;6.970;2023-03-03T06:46:26;100.77;;;40.40;;
2562;SDS011;1291;51.420;6.970;2023-03-03T06:48:52;111.93;;;43.27;;
2562;SDS011;1291;51.420;6.970;2023-03-03T06:53:55;100.47;;;42.47;;
2562;SDS011;1291;51.420;6.970;2023-03-03T06:56:23;104.17;;;40.23;;
2562;SDS011;1291;51.420;6.970;2023-03-03T06:58:52;95.63;;;40.73;;
2562;SDS011;1291;51.420;6.970;2023-03-03T07:01:21;91.47;;;38.77;;
2562;SDS011;1291;51.420;6.970;2023-03-03T07:03:47;85.97;;;36.63;;
2562;SDS011;1291;51.420;6.970;2023-03-03T07:06:17;87.67;;;36.87;;
2562;SDS011;1291;51.420;6.970;2023-03-03T07:08:44;90.70;;;37.83;;
2562;SDS011;1291;51.420;6.970;2023-03-03T07:11:10;101.83;;;43.10;;
2562;SDS011;1291;51.420;6.970;2023-03-03T07:13:43;97.90;;;39.13;;
2562;SDS011;1291;51.420;6.970;2023-03-03T07:16:12;97.10;;;39.30;;
2562;SDS011;1291;51.420;6.970;2023-03-03T07:18:45;84.27;;;37.33;;
2562;SDS011;1291;51.420;6.970;2023-03-03T07:21:24;92.23;;;38.53;;
2562;SDS011;1291;51.420;6.970;2023-03-03T07:23:54;85.57;;;36.40;;
2562;SDS011;1291;51.420;6.970;2023-03-03T07:26:25;83.93;;;36.23;;
2562;SDS011;1291;51.420;6.970;2023-03-03T07:29:02;86.17;;;36.10;;
2562;SDS011;1291;51.420;6.970;2023-03-03T07:31:38;75.73;;;32.80;;
2562;SDS011;1291;51.420;6.970;2023-03-03T07:34:39;81.60;;;34.17;;
2562;SDS011;1291;51.420;6.970;2023-03-03T07:37:03;87.73;;;35.87;;
2562;SDS011;1291;51.420;6.970;2023-03-03T07:39:37;86.73;;;35.07;;
2562;SDS011;1291;51.420;6.970;2023-03-03T07:42:14;96.63;;;36.00;;
2562;SDS011;1291;51.420;6.970;2023-03-03T07:44:45;85.80;;;36.87;;
2562;SDS011;1291;51.420;6.970;2023-03-03T07:49:48;88.03;;;36.63;;
2562;SDS011;1291;51.420;6.970;2023-03-03T07:52:26;91.00;;;39.80;;
2562;SDS011;1291;51.420;6.970;2023-03-03T07:54:52;100.40;;;43.23;;
2562;SDS011;1291;51.420;6.970;2023-03-03T07:57:22;88.63;;;39.70;;
2562;SDS011;1291;51.420;6.970;2023-03-03T07:59:54;98.93;;;41.47;;
2562;SDS011;1291;51.420;6.970;2023-03-03T08:02:32;93.67;;;40.60;;
2562;SDS011;1291;51.420;6.970;2023-03-03T08:05:15;76.13;;;34.33;;
2562;SDS011;1291;51.420;6.970;2023-03-03T08:07:50;82.13;;;36.60;;
2562;SDS011;1291;51.420;6.970;2023-03-03T08:13:27;90.17;;;36.13;;
2562;SDS011;1291;51.420;6.970;2023-03-03T08:16:03;84.40;;;37.07;;
2562;SDS011;1291;51.420;6.970;2023-03-03T08:18:50;87.07;;;36.23;;
2562;SDS011;1291;51.420;6.970;2023-03-03T08:21:24;81.73;;;35.10;;
2562;SDS011;1291;51.420;6.970;2023-03-03T08:23:50;76.00;;;34.23;;
2562;SDS011;1291;51.420;6.970;2023-03-03T08:26:18;75.87;;;34.63;;
2562;SDS011;1291;51.420;6.970;2023-03-03T08:28:44;70.43;;;30.83;;
2562;SDS011;1291;51.420;6.970;2023-03-03T08:31:10;73.40;;;31.70;;
2562;SDS011;1291;51.420;6.970;2023-03-03T08:33:36;69.00;;;30.33;;
2562;SDS011;1291;51.420;6.970;2023-03-03T08:36:02;76.43;;;30.23;;
2562;SDS011;1291;51.420;6.970;2023-03-03T08:38:30;68.70;;;29.10;;
2562;SDS011;1291;51.420;6.970;2023-03-03T08:40:55;60.27;;;28.10;;
2562;SDS011;1291;51.420;6.970;2023-03-03T08:43:21;59.47;;;26.37;;
2562;SDS011;1291;51.420;6.970;2023-03-03T08:45:50;58.13;;;25.90;;
2562;SDS011;1291;51.420;6.970;2023-03-03T08:48:20;55.93;;;26.43;;
2562;SDS011;1291;51.420;6.970;2023-03-03T08:50:45;56.47;;;25.90;;
2562;SDS011;1291;51.420;6.970;2023-03-03T08:53:11;53.10;;;23.83;;
2562;SDS011;1291;51.420;6.970;2023-03-03T08:55:38;52.67;;;24.70;;
2562;SDS011;1291;51.420;6.970;2023-03-03T08:58:04;58.13;;;24.60;;
2562;SDS011;1291;51.420;6.970;2023-03-03T09:00:30;58.33;;;25.13;;
2562;SDS011;1291;51.420;6.970;2023-03-03T09:02:55;60.13;;;25.40;;
2562;SDS011;1291;51.420;6.970;2023-03-03T09:05:21;61.07;;;25.80;;
2562;SDS011;1291;51.420;6.970;2023-03-03T09:07:47;57.33;;;26.43;;
2562;SDS011;1291;51.420;6.970;2023-03-03T09:10:14;57.10;;;25.13;;
2562;SDS011;1291;51.420;6.970;2023-03-03T09:12:42;54.40;;;24.00;;
2562;SDS011;1291;51.420;6.970;2023-03-03T09:15:26;60.03;;;26.23;;
2562;SDS011;1291;51.420;6.970;2023-03-03T09:17:58;52.60;;;24.87;;
2562;SDS011;1291;51.420;6.970;2023-03-03T09:20:40;59.90;;;26.93;;
2562;SDS011;1291;51.420;6.970;2023-03-03T09:28:52;53.20;;;24.80;;
2562;SDS011;1291;51.420;6.970;2023-03-03T09:31:26;57.33;;;26.83;;
2562;SDS011;1291;51.420;6.970;2023-03-03T09:33:59;53.63;;;25.70;;
2562;SDS011;1291;51.420;6.970;2023-03-03T09:36:25;57.23;;;26.07;;
2562;SDS011;1291;51.420;6.970;2023-03-03T09:38:54;58.63;;;25.77;;
2562;SDS011;1291;51.420;6.970;2023-03-03T10:03:24;58.83;;;25.13;;
2562;SDS011;1291;51.420;6.970;2023-03-03T10:05:56;57.23;;;25.80;;
2562;SDS011;1291;51.420;6.970;2023-03-03T10:11:28;50.50;;;23.90;;
2562;SDS011;1291;51.420;6.970;2023-03-03T10:19:35;50.63;;;22.77;;
2562;SDS011;1291;51.420;6.970;2023-03-03T10:22:16;49.70;;;22.73;;
2562;SDS011;1291;51.420;6.970;2023-03-03T10:33:22;48.83;;;21.73;;
2562;SDS011;1291;51.420;6.970;2023-03-03T10:38:53;49.20;;;23.57;;
2562;SDS011;1291;51.420;6.970;2023-03-03T10:44:33;45.10;;;22.07;;
2562;SDS011;1291;51.420;6.970;2023-03-03T10:58:44;42.03;;;19.63;;
2562;SDS011;1291;51.420;6.970;2023-03-03T11:23:29;41.20;;;20.17;;
2562;SDS011;1291;51.420;6.970;2023-03-03T11:29:41;44.83;;;21.07;;
2562;SDS011;1291;51.420;6.970;2023-03-03T11:35:47;43.67;;;20.53;;
2562;SDS011;1291;51.420;6.970;2023-03-03T11:41:00;40.23;;;20.30;;
2562;SDS011;1291;51.420;6.970;2023-03-03T11:47:03;44.17;;;20.33;;
2562;SDS011;1291;51.420;6.970;2023-03-03T11:49:42;43.20;;;20.93;;
2562;SDS011;1291;51.420;6.970;2023-03-03T11:52:33;38.33;;;18.47;;
2562;SDS011;1291;51.420;6.970;2023-03-03T11:55:08;39.30;;;18.53;;
2562;SDS011;1291;51.420;6.970;2023-03-03T11:57:48;38.20;;;19.43;;
2562;SDS011;1291;51.420;6.970;2023-03-03T12:00:30;40.00;;;19.30;;
2562;SDS011;1291;51.420;6.970;2023-03-03T12:11:24;37.83;;;19.73;;
2562;SDS011;1291;51.420;6.970;2023-03-03T12:16:48;33.80;;;18.67;;
2562;SDS011;1291;51.420;6.970;2023-03-03T12:33:01;39.53;;;20.67;;
2562;SDS011;1291;51.420;6.970;2023-03-03T12:35:38;45.40;;;21.10;;
2562;SDS011;1291;51.420;6.970;2023-03-03T12:38:32;43.20;;;20.87;;
2562;SDS011;1291;51.420;6.970;2023-03-03T12:41:04;43.90;;;21.13;;
2562;SDS011;1291;51.420;6.970;2023-03-03T12:48:51;44.10;;;21.13;;
2562;SDS011;1291;51.420;6.970;2023-03-03T12:56:59;42.27;;;21.40;;
2562;SDS011;1291;51.420;6.970;2023-03-03T13:13:13;44.40;;;22.87;;
2562;SDS011;1291;51.420;6.970;2023-03-03T13:21:08;39.53;;;22.40;;
2562;SDS011;1291;51.420;6.970;2023-03-03T13:26:35;49.87;;;25.87;;
2562;SDS011;1291;51.420;6.970;2023-03-03T13:31:54;45.17;;;23.17;;
2562;SDS011;1291;51.420;6.970;2023-03-03T13:37:00;46.10;;;22.10;;
2562;SDS011;1291;51.420;6.970;2023-03-03T13:39:39;44.40;;;23.17;;
2562;SDS011;1291;51.420;6.970;2023-03-03T13:42:36;52.80;;;29.30;;
2562;SDS011;1291;51.420;6.970;2023-03-03T13:50:59;49.57;;;24.83;;
2562;SDS011;1291;51.420;6.970;2023-03-03T14:04:53;46.17;;;25.70;;
2562;SDS011;1291;51.420;6.970;2023-03-03T14:07:27;40.33;;;23.03;;
2562;SDS011;1291;51.420;6.970;2023-03-03T14:09:59;35.30;;;19.97;;
2562;SDS011;1291;51.420;6.970;2023-03-03T14:12:36;36.90;;;20.97;;
2562;SDS011;1291;51.420;6.970;2023-03-03T14:15:33;42.10;;;23.73;;
2562;SDS011;1291;51.420;6.970;2023-03-03T14:20:52;42.00;;;23.23;;
2562;SDS011;1291;51.420;6.970;2023-03-03T14:26:12;41.37;;;21.13;;
2562;SDS011;1291;51.420;6.970;2023-03-03T14:33:58;36.60;;;21.30;;
2562;SDS011;1291;51.420;6.970;2023-03-03T14:36:27;33.30;;;20.03;;
2562;SDS011;1291;51.420;6.970;2023-03-03T14:38:55;34.83;;;19.10;;
2562;SDS011;1291;51.420;6.970;2023-03-03T14:41:21;31.40;;;18.67;;
2562;SDS011;1291;51.420;6.970;2023-03-03T14:44:34;30.17;;;17.33;;
2562;SDS011;1291;51.420;6.970;2023-03-03T14:49:35;35.93;;;19.73;;
2562;SDS011;1291;51.420;6.970;2023-03-03T14:52:04;35.17;;;19.20;;
2562;SDS011;1291;51.420;6.970;2023-03-03T14:54:40;38.03;;;19.27;;
2562;SDS011;1291;51.420;6.970;2023-03-03T15:00:01;28.27;;;16.57;;
2562;SDS011;1291;51.420;6.970;2023-03-03T15:05:30;25.77;;;15.37;;
2562;SDS011;1291;51.420;6.970;2023-03-03T15:10:43;25.97;;;15.03;;
2562;SDS011;1291;51.420;6.970;2023-03-03T15:18:28;28.23;;;16.10;;
2562;SDS011;1291;51.420;6.970;2023-03-03T15:21:14;24.80;;;15.70;;
2562;SDS011;1291;51.420;6.970;2023-03-03T15:23:50;29.20;;;15.50;;
2562;SDS011;1291;51.420;6.970;2023-03-03T15:34:54;30.33;;;16.40;;
2562;SDS011;1291;51.420;6.970;2023-03-03T15:45:20;32.13;;;17.33;;
2562;SDS011;1291;51.420;6.970;2023-03-03T15:48:04;29.10;;;16.37;;
2562;SDS011;1291;51.420;6.970;2023-03-03T15:51:04;28.70;;;17.37;;
2562;SDS011;1291;51.420;6.970;2023-03-03T15:53:51;31.30;;;17.00;;
2562;SDS011;1291;51.420;6.970;2023-03-03T15:59:05;30.87;;;17.50;;
2562;SDS011;1291;51.420;6.970;2023-03-03T16:04:30;35.07;;;17.63;;
2562;SDS011;1291;51.420;6.970;2023-03-03T16:07:12;26.23;;;16.17;;
2562;SDS011;1291;51.420;6.970;2023-03-03T16:10:03;31.40;;;17.30;;
2562;SDS011;1291;51.420;6.970;2023-03-03T16:16:43;29.70;;;16.87;;
2562;SDS011;1291;51.420;6.970;2023-03-03T16:19:15;31.53;;;17.67;;
2562;SDS011;1291;51.420;6.970;2023-03-03T16:30:11;27.77;;;16.47;;
2562;SDS011;1291;51.420;6.970;2023-03-03T16:35:30;30.57;;;17.03;;
2562;SDS011;1291;51.420;6.970;2023-03-03T16:38:01;30.57;;;16.97;;
2562;SDS011;1291;51.420;6.970;2023-03-03T16:40:42;27.63;;;16.80;;
2562;SDS011;1291;51.420;6.970;2023-03-03T16:43:17;27.83;;;16.83;;
2562;SDS011;1291;51.420;6.970;2023-03-03T16:45:44;28.23;;;16.60;;
2562;SDS011;1291;51.420;6.970;2023-03-03T17:04:30;33.03;;;16.73;;
2562;SDS011;1291;51.420;6.970;2023-03-03T17:15:38;34.97;;;17.90;;
2562;SDS011;1291;51.420;6.970;2023-03-03T17:18:22;31.60;;;17.07;;
2562;SDS011;1291;51.420;6.970;2023-03-03T17:21:13;32.97;;;18.57;;
2562;SDS011;1291;51.420;6.970;2023-03-03T17:28:55;29.57;;;18.47;;
2562;SDS011;1291;51.420;6.970;2023-03-03T17:34:23;37.83;;;19.90;;
2562;SDS011;1291;51.420;6.970;2023-03-03T17:37:16;35.77;;;20.03;;
2562;SDS011;1291;51.420;6.970;2023-03-03T17:40:12;35.33;;;20.13;;
2562;SDS011;1291;51.420;6.970;2023-03-03T17:45:26;34.70;;;19.30;;
2562;SDS011;1291;51.420;6.970;2023-03-03T17:50:38;35.37;;;21.03;;
2562;SDS011;1291;51.420;6.970;2023-03-03T17:55:45;36.80;;;21.70;;
2562;SDS011;1291;51.420;6.970;2023-03-03T18:07:20;29.93;;;17.70;;
2562;SDS011;1291;51.420;6.970;2023-03-03T18:18:02;35.33;;;19.03;;
2562;SDS011;1291;51.420;6.970;2023-03-03T18:20:52;33.87;;;17.93;;
2562;SDS011;1291;51.420;6.970;2023-03-03T18:28:50;35.43;;;19.00;;
2562;SDS011;1291;51.420;6.970;2023-03-03T18:31:29;31.80;;;19.30;;
2562;SDS011;1291;51.420;6.970;2023-03-03T18:34:08;38.80;;;20.17;;
2562;SDS011;1291;51.420;6.970;2023-03-03T18:36:51;38.13;;;18.93;;
2562;SDS011;1291;51.420;6.970;2023-03-03T18:39:34;38.23;;;19.73;;
2562;SDS011;1291;51.420;6.970;2023-03-03T18:44:54;35.80;;;20.53;;
2562;SDS011;1291;51.420;6.970;2023-03-03T18:47:21;37.40;;;20.53;;
2562;SDS011;1291;51.420;6.970;2023-03-03T18:55:53;36.73;;;19.63;;
2562;SDS011;1291;51.420;6.970;2023-03-03T18:58:27;35.20;;;19.77;;
2562;SDS011;1291;51.420;6.970;2023-03-03T19:00:58;31.97;;;18.70;;
2562;SDS011;1291;51.420;6.970;2023-03-03T19:06:09;33.10;;;19.87;;
2562;SDS011;1291;51.420;6.970;2023-03-03T19:11:26;36.67;;;21.50;;
2562;SDS011;1291;51.420;6.970;2023-03-03T19:16:52;30.83;;;17.63;;
2562;SDS011;1291;51.420;6.970;2023-03-03T19:19:19;32.37;;;19.23;;
2562;SDS011;1291;51.420;6.970;2023-03-03T19:21:51;39.73;;;22.67;;
2562;SDS011;1291;51.420;6.970;2023-03-03T19:30:17;37.90;;;22.30;;
2562;SDS011;1291;51.420;6.970;2023-03-03T19:43:47;39.10;;;22.63;;
2562;SDS011;1291;51.420;6.970;2023-03-03T19:46:24;38.67;;;22.07;;
2562;SDS011;1291;51.420;6.970;2023-03-03T20:00:47;32.73;;;18.53;;
2562;SDS011;1291;51.420;6.970;2023-03-03T20:06:37;31.63;;;18.97;;
2562;SDS011;1291;51.420;6.970;2023-03-03T20:15:30;28.00;;;17.40;;
2562;SDS011;1291;51.420;6.970;2023-03-03T20:18:10;25.20;;;16.30;;
2562;SDS011;1291;51.420;6.970;2023-03-03T20:23:46;28.07;;;17.27;;
2562;SDS011;1291;51.420;6.970;2023-03-03T20:26:23;28.73;;;18.83;;
2562;SDS011;1291;51.420;6.970;2023-03-03T20:34:25;25.77;;;16.50;;
2562;SDS011;1291;51.420;6.970;2023-03-03T20:45:10;23.53;;;15.73;;
2562;SDS011;1291;51.420;6.970;2023-03-03T20:50:45;25.90;;;15.10;;
2562;SDS011;1291;51.420;6.970;2023-03-03T20:53:23;22.10;;;14.13;;
2562;SDS011;1291;51.420;6.970;2023-03-03T20:55:58;24.87;;;15.80;;
2562;SDS011;1291;51.420;6.970;2023-03-03T20:58:36;25.60;;;16.20;;
2562;SDS011;1291;51.420;6.970;2023-03-03T21:01:13;23.53;;;15.70;;
2562;SDS011;1291;51.420;6.970;2023-03-03T21:03:44;25.00;;;14.83;;
2562;SDS011;1291;51.420;6.970;2023-03-03T21:08:46;21.87;;;13.97;;
2562;SDS011;1291;51.420;6.970;2023-03-03T21:11:13;16.20;;;11.37;;
2562;SDS011;1291;51.420;6.970;2023-03-03T21:13:41;19.27;;;12.10;;
2562;SDS011;1291;51.420;6.970;2023-03-03T21:18:55;15.93;;;10.23;;
2562;SDS011;1291;51.420;6.970;2023-03-03T21:21:21;19.70;;;11.17;;
2562;SDS011;1291;51.420;6.970;2023-03-03T21:23:46;13.10;;;10.23;;
2562;SDS011;1291;51.420;6.970;2023-03-03T21:26:12;11.57;;;8.93;;
2562;SDS011;1291;51.420;6.970;2023-03-03T21:28:37;12.10;;;8.37;;
2562;SDS011;1291;51.420;6.970;2023-03-03T21:36:11;11.07;;;7.67;;
2562;SDS011;1291;51.420;6.970;2023-03-03T21:38:42;10.27;;;6.93;;
2562;SDS011;1291;51.420;6.970;2023-03-03T21:41:09;10.60;;;6.67;;
2562;SDS011;1291;51.420;6.970;2023-03-03T21:43:35;11.40;;;6.30;;
2562;SDS011;1291;51.420;6.970;2023-03-03T21:46:01;8.70;;;6.63;;
2562;SDS011;1291;51.420;6.970;2023-03-03T21:48:26;11.90;;;6.67;;
2562;SDS011;1291;51.420;6.970;2023-03-03T21:50:51;9.63;;;6.43;;
2562;SDS011;1291;51.420;6.970;2023-03-03T21:53:17;8.33;;;6.33;;
2562;SDS011;1291;51.420;6.970;2023-03-03T21:55:43;7.00;;;5.70;;
2562;SDS011;1291;51.420;6.970;2023-03-03T21:58:12;9.90;;;7.13;;
2562;SDS011;1291;51.420;6.970;2023-03-03T22:00:40;7.10;;;5.43;;
2562;SDS011;1291;51.420;6.970;2023-03-03T22:03:07;7.77;;;5.97;;
2562;SDS011;1291;51.420;6.970;2023-03-03T22:05:33;6.40;;;5.30;;
2562;SDS011;1291;51.420;6.970;2023-03-03T22:07:58;10.87;;;4.97;;